Метеостанция


АнтоновUKKM 230430Z 21001MPS CAVOK 13/06 Q1016
БориспольUKBB 230430Z 19002MPS CAVOK 11/09 Q1016 R88/CLRD// NOSIG
ДнепропетровскUKDD 230430Z 03003MPS 360V080 CAVOK 11/06 Q1016 R08/090070 NOSIG
ДонецкNo METAR available for UKCC.
ЖуляныUKKK 230430Z 00000MPS CAVOK 16/05 Q1016 R08/////// NOSIG
Запорожье(Мокрая)UKDE 230430Z 01003MPS CAVOK 11/06 Q1015 R02/210370 NOSIG
Ивано-ФранковскUKLI 230430Z 00000MPS CAVOK 11/10 Q1018 R28/090070 NOSIG
Кривой РогUKDR 230430Z 02003MPS 350V050 CAVOK 11/06 Q1016 R36/09//70 NOSIG
ЛуганскNo METAR available for UKCW.
ЛьвовUKLL 230430Z 20001MPS CAVOK 13/11 Q1017 R13/CLRD// NOSIG
МариупольNo METAR available for UKCM.
НиколаевUKON 230400Z /////MPS CAVOK 11/06 Q1016 NOSIG
ОдессаUKOO 230430Z 02004MPS CAVOK 12/08 Q1016 R34/090060 NOSIG
РовноUKLR 230430Z VRB02MPS 9999 FEW030CB BKN100 14/12 Q1016 R29/090070 NOSIG
СимферопольNo METAR available for UKFF.
УжгородUKLU 230400Z 00000MPS 9999 FEW040 SCT200 12/10 Q1017 NOSIG
ХарьковUKHH 230430Z 00000MPS CAVOK 11/06 Q1016 R25/0///66 NOSIG
ЧеркассыNo METAR available for UKKE.
ЧерновцыUKLN 230430Z VRB02MPS CAVOK 12/09 Q1018 R33/09//70 NOSIG
Скачать:
Скачать этот файл (Metar_шпаргалка.jpg)Расшифровка METAR[ ]4799 Кб
Вся информация, которая имеется в использовании на сайте и доступная для скачивания, получена исключительно из открытых источников информации сети Интернет, всякое совпадение с данными, имеющими ограничения в доступе, случайное и не является преднамеренным.